sensor_id;sensor_type;location;lat;lon;timestamp;P1;durP1;ratioP1;P2;durP2;ratioP2
75062;SDS011;63981;51.052;13.754;2024-02-04T00:00:15;1.63;;;1.30;;
75062;SDS011;63981;51.052;13.754;2024-02-04T00:01:18;1.90;;;1.23;;
75062;SDS011;63981;51.052;13.754;2024-02-04T00:02:20;1.20;;;1.05;;
75062;SDS011;63981;51.052;13.754;2024-02-04T00:03:23;1.98;;;1.13;;
75062;SDS011;63981;51.052;13.754;2024-02-04T00:04:24;1.45;;;1.23;;
75062;SDS011;63981;51.052;13.754;2024-02-04T00:05:25;1.38;;;1.23;;
75062;SDS011;63981;51.052;13.754;2024-02-04T00:06:26;1.33;;;1.23;;
75062;SDS011;63981;51.052;13.754;2024-02-04T00:07:28;1.77;;;1.20;;
75062;SDS011;63981;51.052;13.754;2024-02-04T00:08:29;1.27;;;1.10;;
75062;SDS011;63981;51.052;13.754;2024-02-04T00:09:30;1.13;;;0.88;;
75062;SDS011;63981;51.052;13.754;2024-02-04T00:10:31;1.35;;;0.98;;
75062;SDS011;63981;51.052;13.754;2024-02-04T00:11:33;1.50;;;1.20;;
75062;SDS011;63981;51.052;13.754;2024-02-04T00:12:35;1.60;;;1.33;;
75062;SDS011;63981;51.052;13.754;2024-02-04T00:13:36;1.40;;;1.20;;
75062;SDS011;63981;51.052;13.754;2024-02-04T00:14:38;1.23;;;1.08;;
75062;SDS011;63981;51.052;13.754;2024-02-04T00:15:39;1.13;;;0.90;;
75062;SDS011;63981;51.052;13.754;2024-02-04T00:16:40;1.60;;;1.08;;
75062;SDS011;63981;51.052;13.754;2024-02-04T00:17:41;2.00;;;1.30;;
75062;SDS011;63981;51.052;13.754;2024-02-04T00:18:42;1.75;;;1.33;;
75062;SDS011;63981;51.052;13.754;2024-02-04T00:19:44;1.80;;;1.40;;
75062;SDS011;63981;51.052;13.754;2024-02-04T00:20:45;1.58;;;1.30;;
75062;SDS011;63981;51.052;13.754;2024-02-04T00:21:46;1.58;;;1.20;;
75062;SDS011;63981;51.052;13.754;2024-02-04T00:22:47;1.08;;;0.90;;
75062;SDS011;63981;51.052;13.754;2024-02-04T00:23:48;1.25;;;1.02;;
75062;SDS011;63981;51.052;13.754;2024-02-04T00:24:49;1.52;;;1.30;;
75062;SDS011;63981;51.052;13.754;2024-02-04T00:25:50;1.55;;;1.10;;
75062;SDS011;63981;51.052;13.754;2024-02-04T00:26:52;2.03;;;1.15;;
75062;SDS011;63981;51.052;13.754;2024-02-04T00:27:53;1.40;;;1.08;;
75062;SDS011;63981;51.052;13.754;2024-02-04T00:28:54;1.13;;;0.90;;
75062;SDS011;63981;51.052;13.754;2024-02-04T00:29:55;2.17;;;1.10;;
75062;SDS011;63981;51.052;13.754;2024-02-04T00:30:56;1.30;;;1.20;;
75062;SDS011;63981;51.052;13.754;2024-02-04T00:31:59;1.38;;;1.25;;
75062;SDS011;63981;51.052;13.754;2024-02-04T00:33:01;1.02;;;0.80;;
75062;SDS011;63981;51.052;13.754;2024-02-04T00:34:03;1.30;;;1.02;;
75062;SDS011;63981;51.052;13.754;2024-02-04T00:35:06;1.20;;;0.95;;
75062;SDS011;63981;51.052;13.754;2024-02-04T00:36:07;1.33;;;0.90;;
75062;SDS011;63981;51.052;13.754;2024-02-04T00:37:08;1.80;;;1.10;;
75062;SDS011;63981;51.052;13.754;2024-02-04T00:38:09;1.35;;;1.02;;
75062;SDS011;63981;51.052;13.754;2024-02-04T00:39:10;1.52;;;1.40;;
75062;SDS011;63981;51.052;13.754;2024-02-04T00:40:12;1.42;;;1.20;;
75062;SDS011;63981;51.052;13.754;2024-02-04T00:41:13;1.52;;;1.40;;
75062;SDS011;63981;51.052;13.754;2024-02-04T00:42:14;1.83;;;1.42;;
75062;SDS011;63981;51.052;13.754;2024-02-04T00:43:16;1.60;;;1.40;;
75062;SDS011;63981;51.052;13.754;2024-02-04T00:44:17;1.30;;;1.00;;
75062;SDS011;63981;51.052;13.754;2024-02-04T00:45:18;1.38;;;0.98;;
75062;SDS011;63981;51.052;13.754;2024-02-04T00:46:19;1.35;;;1.10;;
75062;SDS011;63981;51.052;13.754;2024-02-04T00:47:20;1.60;;;1.40;;
75062;SDS011;63981;51.052;13.754;2024-02-04T00:48:21;1.35;;;1.08;;
75062;SDS011;63981;51.052;13.754;2024-02-04T00:49:22;2.10;;;1.25;;
75062;SDS011;63981;51.052;13.754;2024-02-04T00:50:24;1.50;;;1.20;;
75062;SDS011;63981;51.052;13.754;2024-02-04T00:51:25;1.98;;;1.15;;
75062;SDS011;63981;51.052;13.754;2024-02-04T00:52:27;1.55;;;1.23;;
75062;SDS011;63981;51.052;13.754;2024-02-04T00:53:28;2.28;;;1.52;;
75062;SDS011;63981;51.052;13.754;2024-02-04T00:54:34;2.33;;;1.30;;
75062;SDS011;63981;51.052;13.754;2024-02-04T00:55:35;3.25;;;1.30;;
75062;SDS011;63981;51.052;13.754;2024-02-04T00:56:36;2.28;;;1.40;;
75062;SDS011;63981;51.052;13.754;2024-02-04T00:57:39;1.40;;;1.10;;
75062;SDS011;63981;51.052;13.754;2024-02-04T00:58:40;2.47;;;1.42;;
75062;SDS011;63981;51.052;13.754;2024-02-04T00:59:41;1.73;;;1.52;;
75062;SDS011;63981;51.052;13.754;2024-02-04T01:00:42;1.77;;;1.30;;
75062;SDS011;63981;51.052;13.754;2024-02-04T01:01:43;1.42;;;1.33;;
75062;SDS011;63981;51.052;13.754;2024-02-04T01:02:44;1.30;;;1.10;;
75062;SDS011;63981;51.052;13.754;2024-02-04T01:03:46;1.33;;;1.23;;
75062;SDS011;63981;51.052;13.754;2024-02-04T01:04:47;1.70;;;1.40;;
75062;SDS011;63981;51.052;13.754;2024-02-04T01:05:51;1.63;;;1.27;;
75062;SDS011;63981;51.052;13.754;2024-02-04T01:06:52;1.20;;;1.10;;
75062;SDS011;63981;51.052;13.754;2024-02-04T01:07:53;1.55;;;1.17;;
75062;SDS011;63981;51.052;13.754;2024-02-04T01:08:58;1.60;;;1.33;;
75062;SDS011;63981;51.052;13.754;2024-02-04T01:09:59;1.60;;;1.02;;
75062;SDS011;63981;51.052;13.754;2024-02-04T01:11:00;1.48;;;1.38;;
75062;SDS011;63981;51.052;13.754;2024-02-04T01:12:02;1.60;;;1.10;;
75062;SDS011;63981;51.052;13.754;2024-02-04T01:13:05;1.55;;;1.27;;
75062;SDS011;63981;51.052;13.754;2024-02-04T01:14:06;2.08;;;1.30;;
75062;SDS011;63981;51.052;13.754;2024-02-04T01:15:07;1.50;;;1.20;;
75062;SDS011;63981;51.052;13.754;2024-02-04T01:16:08;1.02;;;0.93;;
75062;SDS011;63981;51.052;13.754;2024-02-04T01:17:09;2.92;;;1.40;;
75062;SDS011;63981;51.052;13.754;2024-02-04T01:18:11;1.95;;;1.20;;
75062;SDS011;63981;51.052;13.754;2024-02-04T01:19:12;2.25;;;1.33;;
75062;SDS011;63981;51.052;13.754;2024-02-04T01:20:13;1.23;;;1.05;;
75062;SDS011;63981;51.052;13.754;2024-02-04T01:21:14;2.25;;;1.02;;
75062;SDS011;63981;51.052;13.754;2024-02-04T01:22:17;1.27;;;0.98;;
75062;SDS011;63981;51.052;13.754;2024-02-04T01:23:18;1.40;;;1.10;;
75062;SDS011;63981;51.052;13.754;2024-02-04T01:24:20;1.20;;;0.98;;
75062;SDS011;63981;51.052;13.754;2024-02-04T01:25:21;1.25;;;1.00;;
75062;SDS011;63981;51.052;13.754;2024-02-04T01:26:22;1.33;;;1.20;;
75062;SDS011;63981;51.052;13.754;2024-02-04T01:27:25;1.92;;;1.20;;
75062;SDS011;63981;51.052;13.754;2024-02-04T01:28:26;1.50;;;1.00;;
75062;SDS011;63981;51.052;13.754;2024-02-04T01:29:27;1.77;;;0.98;;
75062;SDS011;63981;51.052;13.754;2024-02-04T01:30:28;1.25;;;1.13;;
75062;SDS011;63981;51.052;13.754;2024-02-04T01:31:31;1.08;;;0.98;;
75062;SDS011;63981;51.052;13.754;2024-02-04T01:32:34;1.75;;;1.10;;
75062;SDS011;63981;51.052;13.754;2024-02-04T01:33:36;1.35;;;0.85;;
75062;SDS011;63981;51.052;13.754;2024-02-04T01:34:37;2.40;;;1.20;;
75062;SDS011;63981;51.052;13.754;2024-02-04T01:35:38;1.60;;;0.65;;
75062;SDS011;63981;51.052;13.754;2024-02-04T01:36:39;2.17;;;1.20;;
75062;SDS011;63981;51.052;13.754;2024-02-04T01:37:40;1.65;;;1.10;;
75062;SDS011;63981;51.052;13.754;2024-02-04T01:38:41;1.83;;;1.20;;
75062;SDS011;63981;51.052;13.754;2024-02-04T01:39:42;2.25;;;1.10;;
75062;SDS011;63981;51.052;13.754;2024-02-04T01:40:44;1.85;;;1.13;;
75062;SDS011;63981;51.052;13.754;2024-02-04T01:41:47;1.10;;;0.70;;
75062;SDS011;63981;51.052;13.754;2024-02-04T01:42:48;1.65;;;1.20;;
75062;SDS011;63981;51.052;13.754;2024-02-04T01:43:49;1.95;;;1.10;;
75062;SDS011;63981;51.052;13.754;2024-02-04T01:44:50;1.20;;;0.90;;
75062;SDS011;63981;51.052;13.754;2024-02-04T01:45:52;2.28;;;0.85;;
75062;SDS011;63981;51.052;13.754;2024-02-04T01:46:53;1.80;;;1.20;;
75062;SDS011;63981;51.052;13.754;2024-02-04T01:47:55;1.45;;;0.90;;
75062;SDS011;63981;51.052;13.754;2024-02-04T01:48:56;2.97;;;1.10;;
75062;SDS011;63981;51.052;13.754;2024-02-04T01:49:57;1.80;;;0.80;;
75062;SDS011;63981;51.052;13.754;2024-02-04T01:50:58;1.55;;;0.80;;
75062;SDS011;63981;51.052;13.754;2024-02-04T01:52:01;2.35;;;1.02;;
75062;SDS011;63981;51.052;13.754;2024-02-04T01:53:03;1.05;;;0.80;;
75062;SDS011;63981;51.052;13.754;2024-02-04T01:54:04;1.27;;;0.85;;
75062;SDS011;63981;51.052;13.754;2024-02-04T01:55:06;1.77;;;0.90;;
75062;SDS011;63981;51.052;13.754;2024-02-04T01:56:08;1.15;;;1.00;;
75062;SDS011;63981;51.052;13.754;2024-02-04T01:57:10;2.60;;;1.20;;
75062;SDS011;63981;51.052;13.754;2024-02-04T01:58:13;2.13;;;1.02;;
75062;SDS011;63981;51.052;13.754;2024-02-04T01:59:14;1.50;;;1.13;;
75062;SDS011;63981;51.052;13.754;2024-02-04T02:00:16;1.10;;;0.82;;
75062;SDS011;63981;51.052;13.754;2024-02-04T02:01:18;1.88;;;0.98;;
75062;SDS011;63981;51.052;13.754;2024-02-04T02:02:21;1.00;;;0.85;;
75062;SDS011;63981;51.052;13.754;2024-02-04T02:03:23;1.88;;;0.77;;
75062;SDS011;63981;51.052;13.754;2024-02-04T02:04:25;2.67;;;1.20;;
75062;SDS011;63981;51.052;13.754;2024-02-04T02:05:26;1.83;;;1.20;;
75062;SDS011;63981;51.052;13.754;2024-02-04T02:06:28;2.45;;;0.90;;
75062;SDS011;63981;51.052;13.754;2024-02-04T02:07:29;1.25;;;0.93;;
75062;SDS011;63981;51.052;13.754;2024-02-04T02:08:30;1.60;;;1.00;;
75062;SDS011;63981;51.052;13.754;2024-02-04T02:09:31;2.40;;;1.13;;
75062;SDS011;63981;51.052;13.754;2024-02-04T02:10:33;1.25;;;0.95;;
75062;SDS011;63981;51.052;13.754;2024-02-04T02:11:37;2.25;;;1.23;;
75062;SDS011;63981;51.052;13.754;2024-02-04T02:12:43;1.67;;;1.20;;
75062;SDS011;63981;51.052;13.754;2024-02-04T02:14:13;1.85;;;1.10;;
75062;SDS011;63981;51.052;13.754;2024-02-04T02:15:17;1.05;;;0.80;;
75062;SDS011;63981;51.052;13.754;2024-02-04T02:16:22;2.08;;;0.85;;
75062;SDS011;63981;51.052;13.754;2024-02-04T02:17:28;1.20;;;0.85;;
75062;SDS011;63981;51.052;13.754;2024-02-04T02:18:52;1.48;;;1.05;;
75062;SDS011;63981;51.052;13.754;2024-02-04T02:20:06;0.77;;;0.68;;
75062;SDS011;63981;51.052;13.754;2024-02-04T02:22:21;1.25;;;1.00;;
75062;SDS011;63981;51.052;13.754;2024-02-04T02:23:30;2.25;;;0.93;;
75062;SDS011;63981;51.052;13.754;2024-02-04T02:24:38;1.45;;;1.08;;
75062;SDS011;63981;51.052;13.754;2024-02-04T02:25:40;1.85;;;1.08;;
75062;SDS011;63981;51.052;13.754;2024-02-04T02:26:41;1.30;;;0.80;;
75062;SDS011;63981;51.052;13.754;2024-02-04T02:27:48;2.40;;;1.48;;
75062;SDS011;63981;51.052;13.754;2024-02-04T02:28:50;2.00;;;1.10;;
75062;SDS011;63981;51.052;13.754;2024-02-04T02:29:51;2.33;;;1.27;;
75062;SDS011;63981;51.052;13.754;2024-02-04T02:30:52;1.70;;;1.15;;
75062;SDS011;63981;51.052;13.754;2024-02-04T02:31:53;1.73;;;1.17;;
75062;SDS011;63981;51.052;13.754;2024-02-04T02:32:55;1.40;;;1.00;;
75062;SDS011;63981;51.052;13.754;2024-02-04T02:33:57;2.63;;;1.30;;
75062;SDS011;63981;51.052;13.754;2024-02-04T02:34:59;1.77;;;1.48;;
75062;SDS011;63981;51.052;13.754;2024-02-04T02:36:00;1.73;;;1.15;;
75062;SDS011;63981;51.052;13.754;2024-02-04T02:39:04;1.75;;;1.23;;
75062;SDS011;63981;51.052;13.754;2024-02-04T02:40:21;2.25;;;1.60;;
75062;SDS011;63981;51.052;13.754;2024-02-04T02:41:43;2.60;;;1.58;;
75062;SDS011;63981;51.052;13.754;2024-02-04T02:42:46;2.03;;;1.50;;
75062;SDS011;63981;51.052;13.754;2024-02-04T02:43:49;1.55;;;1.20;;
75062;SDS011;63981;51.052;13.754;2024-02-04T02:44:53;1.40;;;1.17;;
75062;SDS011;63981;51.052;13.754;2024-02-04T02:45:55;1.85;;;1.50;;
75062;SDS011;63981;51.052;13.754;2024-02-04T02:46:57;2.25;;;1.55;;
75062;SDS011;63981;51.052;13.754;2024-02-04T02:48:01;2.15;;;1.50;;
75062;SDS011;63981;51.052;13.754;2024-02-04T02:49:03;2.67;;;1.50;;
75062;SDS011;63981;51.052;13.754;2024-02-04T02:50:05;2.42;;;1.70;;
75062;SDS011;63981;51.052;13.754;2024-02-04T02:51:07;2.08;;;1.73;;
75062;SDS011;63981;51.052;13.754;2024-02-04T02:52:08;2.42;;;1.55;;
75062;SDS011;63981;51.052;13.754;2024-02-04T02:53:09;2.20;;;1.33;;
75062;SDS011;63981;51.052;13.754;2024-02-04T02:54:11;2.20;;;1.73;;
75062;SDS011;63981;51.052;13.754;2024-02-04T02:55:12;2.28;;;1.95;;
75062;SDS011;63981;51.052;13.754;2024-02-04T02:56:13;4.13;;;2.85;;
75062;SDS011;63981;51.052;13.754;2024-02-04T02:57:15;2.63;;;1.77;;
75062;SDS011;63981;51.052;13.754;2024-02-04T02:58:16;3.03;;;2.15;;
75062;SDS011;63981;51.052;13.754;2024-02-04T02:59:17;2.75;;;1.80;;
75062;SDS011;63981;51.052;13.754;2024-02-04T03:00:18;2.22;;;1.80;;
75062;SDS011;63981;51.052;13.754;2024-02-04T03:01:20;3.35;;;2.40;;
75062;SDS011;63981;51.052;13.754;2024-02-04T03:02:21;2.45;;;1.65;;
75062;SDS011;63981;51.052;13.754;2024-02-04T03:03:22;3.63;;;2.03;;
75062;SDS011;63981;51.052;13.754;2024-02-04T03:04:23;3.03;;;2.22;;
75062;SDS011;63981;51.052;13.754;2024-02-04T03:05:25;2.92;;;2.15;;
75062;SDS011;63981;51.052;13.754;2024-02-04T03:06:26;4.22;;;2.75;;
75062;SDS011;63981;51.052;13.754;2024-02-04T03:07:27;3.75;;;2.35;;
75062;SDS011;63981;51.052;13.754;2024-02-04T03:08:28;2.88;;;1.98;;
75062;SDS011;63981;51.052;13.754;2024-02-04T03:09:29;3.05;;;2.30;;
75062;SDS011;63981;51.052;13.754;2024-02-04T03:10:30;3.20;;;2.50;;
75062;SDS011;63981;51.052;13.754;2024-02-04T03:11:31;2.85;;;2.42;;
75062;SDS011;63981;51.052;13.754;2024-02-04T03:12:32;2.72;;;2.22;;
75062;SDS011;63981;51.052;13.754;2024-02-04T03:13:34;2.78;;;2.03;;
75062;SDS011;63981;51.052;13.754;2024-02-04T03:14:35;4.22;;;2.53;;
75062;SDS011;63981;51.052;13.754;2024-02-04T03:15:36;2.53;;;1.95;;
75062;SDS011;63981;51.052;13.754;2024-02-04T03:16:37;3.75;;;2.53;;
75062;SDS011;63981;51.052;13.754;2024-02-04T03:17:40;4.00;;;2.47;;
75062;SDS011;63981;51.052;13.754;2024-02-04T03:18:43;3.67;;;2.65;;
75062;SDS011;63981;51.052;13.754;2024-02-04T03:19:44;4.32;;;2.42;;
75062;SDS011;63981;51.052;13.754;2024-02-04T03:20:47;4.45;;;2.38;;
75062;SDS011;63981;51.052;13.754;2024-02-04T03:21:49;2.65;;;2.13;;
75062;SDS011;63981;51.052;13.754;2024-02-04T03:22:50;6.88;;;3.33;;
75062;SDS011;63981;51.052;13.754;2024-02-04T03:23:52;3.58;;;2.40;;
75062;SDS011;63981;51.052;13.754;2024-02-04T03:24:55;3.45;;;2.63;;
75062;SDS011;63981;51.052;13.754;2024-02-04T03:25:57;3.58;;;2.05;;
75062;SDS011;63981;51.052;13.754;2024-02-04T03:26:58;3.22;;;2.30;;
75062;SDS011;63981;51.052;13.754;2024-02-04T03:28:00;2.88;;;1.83;;
75062;SDS011;63981;51.052;13.754;2024-02-04T03:29:01;2.88;;;1.92;;
75062;SDS011;63981;51.052;13.754;2024-02-04T03:30:06;3.70;;;1.90;;
75062;SDS011;63981;51.052;13.754;2024-02-04T03:31:07;3.03;;;1.67;;
75062;SDS011;63981;51.052;13.754;2024-02-04T03:32:10;2.35;;;1.65;;
75062;SDS011;63981;51.052;13.754;2024-02-04T03:33:11;2.60;;;1.45;;
75062;SDS011;63981;51.052;13.754;2024-02-04T03:34:13;2.90;;;1.63;;
75062;SDS011;63981;51.052;13.754;2024-02-04T03:35:16;1.50;;;1.13;;
75062;SDS011;63981;51.052;13.754;2024-02-04T03:36:21;1.80;;;1.23;;
75062;SDS011;63981;51.052;13.754;2024-02-04T03:37:24;1.98;;;1.30;;
75062;SDS011;63981;51.052;13.754;2024-02-04T03:38:26;3.50;;;1.40;;
75062;SDS011;63981;51.052;13.754;2024-02-04T03:39:27;2.67;;;1.45;;
75062;SDS011;63981;51.052;13.754;2024-02-04T03:40:28;2.78;;;1.20;;
75062;SDS011;63981;51.052;13.754;2024-02-04T03:41:30;1.80;;;1.13;;
75062;SDS011;63981;51.052;13.754;2024-02-04T03:42:31;2.75;;;1.42;;
75062;SDS011;63981;51.052;13.754;2024-02-04T03:43:32;1.65;;;1.02;;
75062;SDS011;63981;51.052;13.754;2024-02-04T03:44:33;1.73;;;1.17;;
75062;SDS011;63981;51.052;13.754;2024-02-04T03:45:35;2.03;;;1.15;;
75062;SDS011;63981;51.052;13.754;2024-02-04T03:46:36;2.88;;;1.02;;
75062;SDS011;63981;51.052;13.754;2024-02-04T03:47:40;1.63;;;1.25;;
75062;SDS011;63981;51.052;13.754;2024-02-04T03:48:41;2.17;;;1.20;;
75062;SDS011;63981;51.052;13.754;2024-02-04T03:49:43;1.83;;;1.23;;
75062;SDS011;63981;51.052;13.754;2024-02-04T03:50:45;1.33;;;0.85;;
75062;SDS011;63981;51.052;13.754;2024-02-04T03:51:46;1.83;;;1.10;;
75062;SDS011;63981;51.052;13.754;2024-02-04T03:52:47;1.30;;;0.90;;
75062;SDS011;63981;51.052;13.754;2024-02-04T03:53:49;1.67;;;1.13;;
75062;SDS011;63981;51.052;13.754;2024-02-04T03:54:51;1.50;;;1.05;;
75062;SDS011;63981;51.052;13.754;2024-02-04T03:55:52;1.45;;;0.93;;
75062;SDS011;63981;51.052;13.754;2024-02-04T03:56:53;2.30;;;1.23;;
75062;SDS011;63981;51.052;13.754;2024-02-04T03:57:55;1.90;;;1.25;;
75062;SDS011;63981;51.052;13.754;2024-02-04T03:58:59;2.10;;;1.27;;
75062;SDS011;63981;51.052;13.754;2024-02-04T04:00:00;1.77;;;1.20;;
75062;SDS011;63981;51.052;13.754;2024-02-04T04:01:01;1.80;;;1.33;;
75062;SDS011;63981;51.052;13.754;2024-02-04T04:02:02;1.67;;;1.23;;
75062;SDS011;63981;51.052;13.754;2024-02-04T04:03:03;1.98;;;1.17;;
75062;SDS011;63981;51.052;13.754;2024-02-04T04:04:04;1.77;;;1.35;;
75062;SDS011;63981;51.052;13.754;2024-02-04T04:05:06;1.90;;;1.33;;
75062;SDS011;63981;51.052;13.754;2024-02-04T04:06:11;1.63;;;1.30;;
75062;SDS011;63981;51.052;13.754;2024-02-04T04:07:12;1.30;;;1.05;;
75062;SDS011;63981;51.052;13.754;2024-02-04T04:08:13;1.35;;;1.13;;
75062;SDS011;63981;51.052;13.754;2024-02-04T04:09:14;2.88;;;1.42;;
75062;SDS011;63981;51.052;13.754;2024-02-04T04:10:15;1.63;;;1.20;;
75062;SDS011;63981;51.052;13.754;2024-02-04T04:11:17;2.70;;;1.45;;
75062;SDS011;63981;51.052;13.754;2024-02-04T04:12:18;1.75;;;1.55;;
75062;SDS011;63981;51.052;13.754;2024-02-04T04:13:19;2.85;;;1.60;;
75062;SDS011;63981;51.052;13.754;2024-02-04T04:14:20;1.52;;;1.20;;
75062;SDS011;63981;51.052;13.754;2024-02-04T04:15:21;1.80;;;1.35;;
75062;SDS011;63981;51.052;13.754;2024-02-04T04:16:22;1.88;;;1.40;;
75062;SDS011;63981;51.052;13.754;2024-02-04T04:17:24;2.30;;;1.30;;
75062;SDS011;63981;51.052;13.754;2024-02-04T04:18:25;1.83;;;1.40;;
75062;SDS011;63981;51.052;13.754;2024-02-04T04:19:26;3.88;;;1.73;;
75062;SDS011;63981;51.052;13.754;2024-02-04T04:20:27;2.70;;;1.75;;
75062;SDS011;63981;51.052;13.754;2024-02-04T04:21:28;2.70;;;1.50;;
75062;SDS011;63981;51.052;13.754;2024-02-04T04:22:29;2.22;;;1.60;;
75062;SDS011;63981;51.052;13.754;2024-02-04T04:23:30;1.90;;;1.60;;
75062;SDS011;63981;51.052;13.754;2024-02-04T04:24:31;2.42;;;1.60;;
75062;SDS011;63981;51.052;13.754;2024-02-04T04:25:32;2.78;;;1.90;;
75062;SDS011;63981;51.052;13.754;2024-02-04T04:26:34;3.13;;;1.60;;
75062;SDS011;63981;51.052;13.754;2024-02-04T04:27:35;3.05;;;2.10;;
75062;SDS011;63981;51.052;13.754;2024-02-04T04:28:36;2.75;;;1.60;;
75062;SDS011;63981;51.052;13.754;2024-02-04T04:29:37;2.97;;;2.13;;
75062;SDS011;63981;51.052;13.754;2024-02-04T04:30:38;3.28;;;1.92;;
75062;SDS011;63981;51.052;13.754;2024-02-04T04:31:39;2.85;;;1.85;;
75062;SDS011;63981;51.052;13.754;2024-02-04T04:32:40;3.30;;;2.10;;
75062;SDS011;63981;51.052;13.754;2024-02-04T04:33:41;2.10;;;1.55;;
75062;SDS011;63981;51.052;13.754;2024-02-04T04:34:43;2.53;;;1.90;;
75062;SDS011;63981;51.052;13.754;2024-02-04T04:35:44;2.33;;;1.60;;
75062;SDS011;63981;51.052;13.754;2024-02-04T04:36:45;2.83;;;1.77;;
75062;SDS011;63981;51.052;13.754;2024-02-04T04:37:46;3.08;;;2.00;;
75062;SDS011;63981;51.052;13.754;2024-02-04T04:38:47;3.40;;;1.90;;
75062;SDS011;63981;51.052;13.754;2024-02-04T04:39:51;3.03;;;2.15;;
75062;SDS011;63981;51.052;13.754;2024-02-04T04:40:52;2.17;;;1.33;;
75062;SDS011;63981;51.052;13.754;2024-02-04T04:41:53;3.00;;;2.00;;
75062;SDS011;63981;51.052;13.754;2024-02-04T04:42:54;2.55;;;1.63;;
75062;SDS011;63981;51.052;13.754;2024-02-04T04:43:55;3.38;;;1.70;;
75062;SDS011;63981;51.052;13.754;2024-02-04T04:44:56;3.22;;;1.85;;
75062;SDS011;63981;51.052;13.754;2024-02-04T04:45:57;2.72;;;1.58;;
75062;SDS011;63981;51.052;13.754;2024-02-04T04:46:59;2.65;;;1.77;;
75062;SDS011;63981;51.052;13.754;2024-02-04T04:48:00;2.42;;;1.73;;
75062;SDS011;63981;51.052;13.754;2024-02-04T04:49:01;2.28;;;1.30;;
75062;SDS011;63981;51.052;13.754;2024-02-04T04:50:02;2.65;;;1.80;;
75062;SDS011;63981;51.052;13.754;2024-02-04T04:51:07;2.03;;;1.60;;
75062;SDS011;63981;51.052;13.754;2024-02-04T04:52:09;3.38;;;2.00;;
75062;SDS011;63981;51.052;13.754;2024-02-04T04:53:10;2.80;;;1.60;;
75062;SDS011;63981;51.052;13.754;2024-02-04T04:54:11;2.38;;;1.50;;
75062;SDS011;63981;51.052;13.754;2024-02-04T04:55:12;2.03;;;1.23;;
75062;SDS011;63981;51.052;13.754;2024-02-04T04:56:13;2.00;;;1.20;;
75062;SDS011;63981;51.052;13.754;2024-02-04T04:57:14;3.30;;;1.70;;
75062;SDS011;63981;51.052;13.754;2024-02-04T04:58:16;3.35;;;2.08;;
75062;SDS011;63981;51.052;13.754;2024-02-04T04:59:17;2.50;;;1.55;;
75062;SDS011;63981;51.052;13.754;2024-02-04T05:00:18;2.72;;;1.48;;
75062;SDS011;63981;51.052;13.754;2024-02-04T05:01:19;2.38;;;1.30;;
75062;SDS011;63981;51.052;13.754;2024-02-04T05:02:20;4.15;;;1.88;;
75062;SDS011;63981;51.052;13.754;2024-02-04T05:03:22;3.30;;;1.85;;
75062;SDS011;63981;51.052;13.754;2024-02-04T05:04:23;4.07;;;1.27;;
75062;SDS011;63981;51.052;13.754;2024-02-04T05:05:25;1.83;;;1.20;;
75062;SDS011;63981;51.052;13.754;2024-02-04T05:06:26;2.03;;;1.48;;
75062;SDS011;63981;51.052;13.754;2024-02-04T05:07:28;3.17;;;1.52;;
75062;SDS011;63981;51.052;13.754;2024-02-04T05:08:29;2.33;;;1.27;;
75062;SDS011;63981;51.052;13.754;2024-02-04T05:09:30;2.75;;;1.52;;
75062;SDS011;63981;51.052;13.754;2024-02-04T05:10:31;1.88;;;1.48;;
75062;SDS011;63981;51.052;13.754;2024-02-04T05:11:32;3.58;;;1.60;;
75062;SDS011;63981;51.052;13.754;2024-02-04T05:12:34;2.22;;;1.48;;
75062;SDS011;63981;51.052;13.754;2024-02-04T05:13:38;3.63;;;1.67;;
75062;SDS011;63981;51.052;13.754;2024-02-04T05:14:39;2.40;;;1.42;;
75062;SDS011;63981;51.052;13.754;2024-02-04T05:15:40;2.67;;;1.60;;
75062;SDS011;63981;51.052;13.754;2024-02-04T05:16:41;2.08;;;1.25;;
75062;SDS011;63981;51.052;13.754;2024-02-04T05:17:44;2.60;;;1.55;;
75062;SDS011;63981;51.052;13.754;2024-02-04T05:18:46;2.28;;;1.38;;
75062;SDS011;63981;51.052;13.754;2024-02-04T05:19:47;2.85;;;1.67;;
75062;SDS011;63981;51.052;13.754;2024-02-04T05:20:48;3.05;;;1.55;;
75062;SDS011;63981;51.052;13.754;2024-02-04T05:21:49;2.25;;;1.63;;
75062;SDS011;63981;51.052;13.754;2024-02-04T05:22:50;3.67;;;1.20;;
75062;SDS011;63981;51.052;13.754;2024-02-04T05:23:51;3.72;;;1.55;;
75062;SDS011;63981;51.052;13.754;2024-02-04T05:24:52;3.78;;;1.55;;
75062;SDS011;63981;51.052;13.754;2024-02-04T05:25:53;2.38;;;1.45;;
75062;SDS011;63981;51.052;13.754;2024-02-04T05:26:54;3.22;;;1.60;;
75062;SDS011;63981;51.052;13.754;2024-02-04T05:27:55;2.10;;;1.50;;
75062;SDS011;63981;51.052;13.754;2024-02-04T05:28:56;2.67;;;1.58;;
75062;SDS011;63981;51.052;13.754;2024-02-04T05:29:58;2.35;;;1.52;;
75062;SDS011;63981;51.052;13.754;2024-02-04T05:31:01;2.70;;;1.35;;
75062;SDS011;63981;51.052;13.754;2024-02-04T05:32:03;2.55;;;1.73;;
75062;SDS011;63981;51.052;13.754;2024-02-04T05:33:04;1.75;;;1.15;;
75062;SDS011;63981;51.052;13.754;2024-02-04T05:34:05;2.83;;;1.48;;
75062;SDS011;63981;51.052;13.754;2024-02-04T05:35:07;2.65;;;1.70;;
75062;SDS011;63981;51.052;13.754;2024-02-04T05:36:09;1.58;;;1.23;;
75062;SDS011;63981;51.052;13.754;2024-02-04T05:37:10;1.88;;;1.35;;
75062;SDS011;63981;51.052;13.754;2024-02-04T05:38:11;2.78;;;1.60;;
75062;SDS011;63981;51.052;13.754;2024-02-04T05:39:13;2.08;;;1.50;;
75062;SDS011;63981;51.052;13.754;2024-02-04T05:40:15;2.70;;;1.60;;
75062;SDS011;63981;51.052;13.754;2024-02-04T05:41:17;2.92;;;1.63;;
75062;SDS011;63981;51.052;13.754;2024-02-04T05:42:19;1.92;;;1.55;;
75062;SDS011;63981;51.052;13.754;2024-02-04T05:43:20;1.95;;;1.45;;
75062;SDS011;63981;51.052;13.754;2024-02-04T05:44:21;1.98;;;1.42;;
75062;SDS011;63981;51.052;13.754;2024-02-04T05:45:22;3.22;;;1.55;;
75062;SDS011;63981;51.052;13.754;2024-02-04T05:46:23;3.20;;;1.70;;
75062;SDS011;63981;51.052;13.754;2024-02-04T05:47:24;2.67;;;1.60;;
75062;SDS011;63981;51.052;13.754;2024-02-04T05:48:25;3.22;;;1.48;;
75062;SDS011;63981;51.052;13.754;2024-02-04T05:49:26;2.25;;;1.52;;
75062;SDS011;63981;51.052;13.754;2024-02-04T05:50:27;2.42;;;1.63;;
75062;SDS011;63981;51.052;13.754;2024-02-04T05:51:28;2.65;;;1.45;;
75062;SDS011;63981;51.052;13.754;2024-02-04T05:52:30;2.50;;;1.92;;
75062;SDS011;63981;51.052;13.754;2024-02-04T05:53:31;3.63;;;1.25;;
75062;SDS011;63981;51.052;13.754;2024-02-04T05:54:36;2.22;;;1.45;;
75062;SDS011;63981;51.052;13.754;2024-02-04T05:55:38;2.30;;;1.60;;
75062;SDS011;63981;51.052;13.754;2024-02-04T05:56:39;1.80;;;1.40;;
75062;SDS011;63981;51.052;13.754;2024-02-04T05:57:41;1.33;;;1.00;;
75062;SDS011;63981;51.052;13.754;2024-02-04T05:58:42;2.60;;;2.10;;
75062;SDS011;63981;51.052;13.754;2024-02-04T05:59:43;2.65;;;1.70;;
75062;SDS011;63981;51.052;13.754;2024-02-04T06:00:44;1.92;;;1.45;;
75062;SDS011;63981;51.052;13.754;2024-02-04T06:01:46;2.75;;;2.00;;
75062;SDS011;63981;51.052;13.754;2024-02-04T06:02:47;2.13;;;1.58;;
75062;SDS011;63981;51.052;13.754;2024-02-04T06:03:48;2.08;;;1.50;;
75062;SDS011;63981;51.052;13.754;2024-02-04T06:04:49;1.63;;;1.20;;
75062;SDS011;63981;51.052;13.754;2024-02-04T06:05:50;2.38;;;1.70;;
75062;SDS011;63981;51.052;13.754;2024-02-04T06:06:51;2.50;;;1.65;;
75062;SDS011;63981;51.052;13.754;2024-02-04T06:07:52;2.63;;;1.30;;
75062;SDS011;63981;51.052;13.754;2024-02-04T06:08:54;3.13;;;1.60;;
75062;SDS011;63981;51.052;13.754;2024-02-04T06:09:55;2.22;;;1.75;;